virtualACA

Welcome To Montreal - Pierre Elliott Trudeau International CYUL

Hub Roster

Pilot Domicile Rank
Mike Avila - ACA1002CanadaChief Executive Officer
Pierre Dequack - ACA2656FranceSenior Captain
Jean-Pierre Audet - ACA2903CanadaChief Pilot
Neil Blaikie - ACA3070CanadaChief Pilot
John Simmons - ACA3243CanadaSenior Captain
Bob Gorman - ACA3302CanadaFirst Officer
Bachir Skender - ACA3311CanadaNew Hire
EDWIN PEREZ - ACA3312PeruFirst Officer
Andro Triana - ACA3331CubaNew Hire

Current Vatsim Weather


CYUL 062100Z 27009KT 30SM FEW050 FEW250 25/13 A3008 RMK SC1CI1 SC TR CI TR SLP188 DENSITY ALT 1100FT
Montreal - Pierre Elliott Trudeau International